sensor_id;sensor_type;location;lat;lon;timestamp;P1;durP1;ratioP1;P2;durP2;ratioP2
16504;SDS011;8365;51.030;4.696;2023-12-28T00:01:23;4.17;;;3.77;;
16504;SDS011;8365;51.030;4.696;2023-12-28T00:03:54;3.83;;;3.37;;
16504;SDS011;8365;51.030;4.696;2023-12-28T00:06:24;4.57;;;3.23;;
16504;SDS011;8365;51.030;4.696;2023-12-28T00:08:55;4.40;;;3.73;;
16504;SDS011;8365;51.030;4.696;2023-12-28T00:11:25;4.17;;;3.30;;
16504;SDS011;8365;51.030;4.696;2023-12-28T00:13:56;4.30;;;3.60;;
16504;SDS011;8365;51.030;4.696;2023-12-28T00:16:27;3.53;;;3.23;;
16504;SDS011;8365;51.030;4.696;2023-12-28T00:18:57;4.60;;;3.40;;
16504;SDS011;8365;51.030;4.696;2023-12-28T00:21:28;3.50;;;3.17;;
16504;SDS011;8365;51.030;4.696;2023-12-28T00:23:58;4.10;;;3.70;;
16504;SDS011;8365;51.030;4.696;2023-12-28T00:26:29;3.83;;;3.50;;
16504;SDS011;8365;51.030;4.696;2023-12-28T00:29:02;4.70;;;3.47;;
16504;SDS011;8365;51.030;4.696;2023-12-28T00:31:32;4.50;;;4.10;;
16504;SDS011;8365;51.030;4.696;2023-12-28T00:34:03;5.57;;;4.17;;
16504;SDS011;8365;51.030;4.696;2023-12-28T00:36:33;3.80;;;3.13;;
16504;SDS011;8365;51.030;4.696;2023-12-28T00:39:04;5.73;;;4.10;;
16504;SDS011;8365;51.030;4.696;2023-12-28T00:41:34;5.00;;;4.13;;
16504;SDS011;8365;51.030;4.696;2023-12-28T00:44:05;5.70;;;3.87;;
16504;SDS011;8365;51.030;4.696;2023-12-28T00:46:39;6.23;;;3.43;;
16504;SDS011;8365;51.030;4.696;2023-12-28T00:49:09;4.20;;;3.73;;
16504;SDS011;8365;51.030;4.696;2023-12-28T00:51:40;3.47;;;3.17;;
16504;SDS011;8365;51.030;4.696;2023-12-28T00:54:10;5.83;;;3.83;;
16504;SDS011;8365;51.030;4.696;2023-12-28T00:56:41;5.53;;;3.50;;
16504;SDS011;8365;51.030;4.696;2023-12-28T00:59:11;5.00;;;3.57;;
16504;SDS011;8365;51.030;4.696;2023-12-28T01:01:42;4.20;;;3.33;;
16504;SDS011;8365;51.030;4.696;2023-12-28T01:04:12;5.50;;;3.50;;
16504;SDS011;8365;51.030;4.696;2023-12-28T01:06:43;5.03;;;3.57;;
16504;SDS011;8365;51.030;4.696;2023-12-28T01:09:13;7.10;;;3.50;;
16504;SDS011;8365;51.030;4.696;2023-12-28T01:11:44;5.87;;;3.40;;
16504;SDS011;8365;51.030;4.696;2023-12-28T01:14:14;5.33;;;3.47;;
16504;SDS011;8365;51.030;4.696;2023-12-28T01:16:45;4.57;;;3.27;;
16504;SDS011;8365;51.030;4.696;2023-12-28T01:19:15;3.30;;;3.00;;
16504;SDS011;8365;51.030;4.696;2023-12-28T01:21:46;5.20;;;3.47;;
16504;SDS011;8365;51.030;4.696;2023-12-28T01:24:16;5.03;;;3.93;;
16504;SDS011;8365;51.030;4.696;2023-12-28T01:26:47;4.77;;;3.40;;
16504;SDS011;8365;51.030;4.696;2023-12-28T01:29:18;4.83;;;3.47;;
16504;SDS011;8365;51.030;4.696;2023-12-28T01:31:48;4.40;;;3.57;;
16504;SDS011;8365;51.030;4.696;2023-12-28T01:34:21;7.00;;;3.70;;
16504;SDS011;8365;51.030;4.696;2023-12-28T01:36:51;7.67;;;3.70;;
16504;SDS011;8365;51.030;4.696;2023-12-28T01:39:22;4.60;;;3.40;;
16504;SDS011;8365;51.030;4.696;2023-12-28T01:41:54;5.33;;;3.50;;
16504;SDS011;8365;51.030;4.696;2023-12-28T01:44:25;5.17;;;3.40;;
16504;SDS011;8365;51.030;4.696;2023-12-28T01:46:56;6.80;;;3.80;;
16504;SDS011;8365;51.030;4.696;2023-12-28T01:49:26;3.70;;;3.37;;
16504;SDS011;8365;51.030;4.696;2023-12-28T01:51:57;3.67;;;3.33;;
16504;SDS011;8365;51.030;4.696;2023-12-28T01:54:27;3.87;;;3.47;;
16504;SDS011;8365;51.030;4.696;2023-12-28T01:56:59;6.13;;;3.50;;
16504;SDS011;8365;51.030;4.696;2023-12-28T01:59:31;3.67;;;3.10;;
16504;SDS011;8365;51.030;4.696;2023-12-28T02:02:04;5.03;;;3.37;;
16504;SDS011;8365;51.030;4.696;2023-12-28T02:04:36;4.53;;;3.10;;
16504;SDS011;8365;51.030;4.696;2023-12-28T02:07:09;7.87;;;3.77;;
16504;SDS011;8365;51.030;4.696;2023-12-28T02:09:43;5.50;;;3.33;;
16504;SDS011;8365;51.030;4.696;2023-12-28T02:12:14;4.23;;;3.13;;
16504;SDS011;8365;51.030;4.696;2023-12-28T02:14:44;4.00;;;2.90;;
16504;SDS011;8365;51.030;4.696;2023-12-28T02:17:19;3.50;;;3.00;;
16504;SDS011;8365;51.030;4.696;2023-12-28T02:19:56;4.70;;;2.90;;
16504;SDS011;8365;51.030;4.696;2023-12-28T02:22:28;5.93;;;3.50;;
16504;SDS011;8365;51.030;4.696;2023-12-28T02:25:12;3.43;;;3.13;;
16504;SDS011;8365;51.030;4.696;2023-12-28T02:27:43;4.57;;;3.10;;
16504;SDS011;8365;51.030;4.696;2023-12-28T02:30:22;4.33;;;3.10;;
16504;SDS011;8365;51.030;4.696;2023-12-28T02:35:52;4.83;;;2.97;;
16504;SDS011;8365;51.030;4.696;2023-12-28T02:38:27;5.80;;;3.37;;
16504;SDS011;8365;51.030;4.696;2023-12-28T02:41:00;6.10;;;2.50;;
16504;SDS011;8365;51.030;4.696;2023-12-28T02:43:33;4.00;;;2.70;;
16504;SDS011;8365;51.030;4.696;2023-12-28T02:46:04;5.37;;;3.20;;
16504;SDS011;8365;51.030;4.696;2023-12-28T02:48:35;5.33;;;2.70;;
16504;SDS011;8365;51.030;4.696;2023-12-28T02:51:05;4.30;;;2.87;;
16504;SDS011;8365;51.030;4.696;2023-12-28T02:53:36;5.67;;;2.97;;
16504;SDS011;8365;51.030;4.696;2023-12-28T02:56:06;6.57;;;2.70;;
16504;SDS011;8365;51.030;4.696;2023-12-28T02:58:39;4.80;;;2.80;;
16504;SDS011;8365;51.030;4.696;2023-12-28T03:01:10;4.80;;;3.10;;
16504;SDS011;8365;51.030;4.696;2023-12-28T03:03:40;6.93;;;3.03;;
16504;SDS011;8365;51.030;4.696;2023-12-28T03:06:11;4.70;;;2.60;;
16504;SDS011;8365;51.030;4.696;2023-12-28T03:08:43;4.73;;;2.77;;
16504;SDS011;8365;51.030;4.696;2023-12-28T03:11:14;6.20;;;3.20;;
16504;SDS011;8365;51.030;4.696;2023-12-28T03:13:45;4.80;;;2.90;;
16504;SDS011;8365;51.030;4.696;2023-12-28T03:16:15;3.97;;;3.00;;
16504;SDS011;8365;51.030;4.696;2023-12-28T03:18:46;5.57;;;3.03;;
16504;SDS011;8365;51.030;4.696;2023-12-28T03:21:16;5.27;;;3.10;;
16504;SDS011;8365;51.030;4.696;2023-12-28T03:23:46;7.73;;;2.90;;
16504;SDS011;8365;51.030;4.696;2023-12-28T03:26:17;6.40;;;3.57;;
16504;SDS011;8365;51.030;4.696;2023-12-28T03:28:47;3.93;;;2.83;;
16504;SDS011;8365;51.030;4.696;2023-12-28T03:31:18;4.23;;;2.90;;
16504;SDS011;8365;51.030;4.696;2023-12-28T03:33:51;6.73;;;2.80;;
16504;SDS011;8365;51.030;4.696;2023-12-28T03:36:21;5.03;;;2.83;;
16504;SDS011;8365;51.030;4.696;2023-12-28T03:38:53;5.53;;;3.00;;
16504;SDS011;8365;51.030;4.696;2023-12-28T03:41:23;5.90;;;3.20;;
16504;SDS011;8365;51.030;4.696;2023-12-28T03:43:54;5.03;;;2.80;;
16504;SDS011;8365;51.030;4.696;2023-12-28T03:46:24;5.20;;;2.83;;
16504;SDS011;8365;51.030;4.696;2023-12-28T03:48:56;5.50;;;3.00;;
16504;SDS011;8365;51.030;4.696;2023-12-28T03:51:27;7.20;;;2.80;;
16504;SDS011;8365;51.030;4.696;2023-12-28T03:53:57;6.83;;;2.50;;
16504;SDS011;8365;51.030;4.696;2023-12-28T03:56:30;7.80;;;2.60;;
16504;SDS011;8365;51.030;4.696;2023-12-28T03:59:03;10.40;;;3.10;;
16504;SDS011;8365;51.030;4.696;2023-12-28T04:01:33;4.33;;;2.40;;
16504;SDS011;8365;51.030;4.696;2023-12-28T04:04:03;5.17;;;2.83;;
16504;SDS011;8365;51.030;4.696;2023-12-28T04:06:34;5.33;;;2.90;;
16504;SDS011;8365;51.030;4.696;2023-12-28T04:09:07;8.27;;;3.27;;
16504;SDS011;8365;51.030;4.696;2023-12-28T04:11:38;7.23;;;2.70;;
16504;SDS011;8365;51.030;4.696;2023-12-28T04:14:08;7.20;;;2.97;;
16504;SDS011;8365;51.030;4.696;2023-12-28T04:16:39;6.73;;;2.70;;
16504;SDS011;8365;51.030;4.696;2023-12-28T04:19:09;6.97;;;2.80;;
16504;SDS011;8365;51.030;4.696;2023-12-28T04:21:42;6.83;;;2.80;;
16504;SDS011;8365;51.030;4.696;2023-12-28T04:24:14;6.63;;;2.90;;
16504;SDS011;8365;51.030;4.696;2023-12-28T04:26:46;6.10;;;2.80;;
16504;SDS011;8365;51.030;4.696;2023-12-28T04:29:17;7.07;;;3.00;;
16504;SDS011;8365;51.030;4.696;2023-12-28T04:31:48;6.97;;;2.80;;
16504;SDS011;8365;51.030;4.696;2023-12-28T04:34:18;7.07;;;2.80;;
16504;SDS011;8365;51.030;4.696;2023-12-28T04:36:49;9.47;;;3.30;;
16504;SDS011;8365;51.030;4.696;2023-12-28T04:39:19;10.10;;;2.90;;
16504;SDS011;8365;51.030;4.696;2023-12-28T04:41:49;7.53;;;2.87;;
16504;SDS011;8365;51.030;4.696;2023-12-28T04:44:20;6.13;;;3.00;;
16504;SDS011;8365;51.030;4.696;2023-12-28T04:46:50;6.40;;;2.80;;
16504;SDS011;8365;51.030;4.696;2023-12-28T04:49:21;10.03;;;2.77;;
16504;SDS011;8365;51.030;4.696;2023-12-28T04:51:51;7.77;;;3.13;;
16504;SDS011;8365;51.030;4.696;2023-12-28T04:54:22;7.33;;;2.87;;
16504;SDS011;8365;51.030;4.696;2023-12-28T04:56:55;7.17;;;2.40;;
16504;SDS011;8365;51.030;4.696;2023-12-28T04:59:25;9.43;;;3.43;;
16504;SDS011;8365;51.030;4.696;2023-12-28T05:01:56;7.53;;;2.97;;
16504;SDS011;8365;51.030;4.696;2023-12-28T05:04:26;10.60;;;3.07;;
16504;SDS011;8365;51.030;4.696;2023-12-28T05:06:59;11.87;;;3.33;;
16504;SDS011;8365;51.030;4.696;2023-12-28T05:09:30;8.20;;;2.90;;
16504;SDS011;8365;51.030;4.696;2023-12-28T05:12:01;11.93;;;3.63;;
16504;SDS011;8365;51.030;4.696;2023-12-28T05:14:34;6.70;;;2.50;;
16504;SDS011;8365;51.030;4.696;2023-12-28T05:17:04;10.07;;;3.13;;
16504;SDS011;8365;51.030;4.696;2023-12-28T05:19:35;5.83;;;2.80;;
16504;SDS011;8365;51.030;4.696;2023-12-28T05:22:05;9.13;;;3.13;;
16504;SDS011;8365;51.030;4.696;2023-12-28T05:24:38;7.47;;;2.90;;
16504;SDS011;8365;51.030;4.696;2023-12-28T05:27:09;9.20;;;3.10;;
16504;SDS011;8365;51.030;4.696;2023-12-28T05:29:39;10.10;;;3.23;;
16504;SDS011;8365;51.030;4.696;2023-12-28T05:32:12;8.53;;;2.67;;
16504;SDS011;8365;51.030;4.696;2023-12-28T05:34:42;10.80;;;2.77;;
16504;SDS011;8365;51.030;4.696;2023-12-28T05:37:13;7.90;;;3.00;;
16504;SDS011;8365;51.030;4.696;2023-12-28T05:39:43;9.77;;;3.00;;
16504;SDS011;8365;51.030;4.696;2023-12-28T05:42:14;9.50;;;3.10;;
16504;SDS011;8365;51.030;4.696;2023-12-28T05:44:44;8.37;;;3.00;;
16504;SDS011;8365;51.030;4.696;2023-12-28T05:47:15;9.83;;;3.27;;
16504;SDS011;8365;51.030;4.696;2023-12-28T05:49:46;7.77;;;2.97;;
16504;SDS011;8365;51.030;4.696;2023-12-28T05:52:16;13.13;;;3.70;;
16504;SDS011;8365;51.030;4.696;2023-12-28T05:54:48;8.07;;;3.10;;
16504;SDS011;8365;51.030;4.696;2023-12-28T05:57:19;7.90;;;3.27;;
16504;SDS011;8365;51.030;4.696;2023-12-28T05:59:51;10.20;;;3.43;;
16504;SDS011;8365;51.030;4.696;2023-12-28T06:02:22;9.17;;;3.40;;
16504;SDS011;8365;51.030;4.696;2023-12-28T06:04:53;8.43;;;3.20;;
16504;SDS011;8365;51.030;4.696;2023-12-28T06:07:23;7.53;;;3.20;;
16504;SDS011;8365;51.030;4.696;2023-12-28T06:09:54;9.83;;;2.80;;
16504;SDS011;8365;51.030;4.696;2023-12-28T06:12:24;10.83;;;3.23;;
16504;SDS011;8365;51.030;4.696;2023-12-28T06:14:55;12.10;;;3.13;;
16504;SDS011;8365;51.030;4.696;2023-12-28T06:17:25;7.73;;;3.20;;
16504;SDS011;8365;51.030;4.696;2023-12-28T06:19:55;8.53;;;3.20;;
16504;SDS011;8365;51.030;4.696;2023-12-28T06:22:26;11.73;;;3.60;;
16504;SDS011;8365;51.030;4.696;2023-12-28T06:24:57;11.23;;;3.00;;
16504;SDS011;8365;51.030;4.696;2023-12-28T06:27:28;8.07;;;2.73;;
16504;SDS011;8365;51.030;4.696;2023-12-28T06:30:00;9.37;;;3.50;;
16504;SDS011;8365;51.030;4.696;2023-12-28T06:32:31;7.70;;;3.03;;
16504;SDS011;8365;51.030;4.696;2023-12-28T06:35:02;15.30;;;3.73;;
16504;SDS011;8365;51.030;4.696;2023-12-28T06:37:32;14.43;;;3.53;;
16504;SDS011;8365;51.030;4.696;2023-12-28T06:40:03;12.47;;;3.70;;
16504;SDS011;8365;51.030;4.696;2023-12-28T06:42:34;15.43;;;3.67;;
16504;SDS011;8365;51.030;4.696;2023-12-28T06:45:04;14.17;;;2.83;;
16504;SDS011;8365;51.030;4.696;2023-12-28T06:47:35;9.67;;;3.13;;
16504;SDS011;8365;51.030;4.696;2023-12-28T06:50:06;10.70;;;2.90;;
16504;SDS011;8365;51.030;4.696;2023-12-28T06:52:37;14.73;;;3.60;;
16504;SDS011;8365;51.030;4.696;2023-12-28T06:55:07;9.93;;;3.40;;
16504;SDS011;8365;51.030;4.696;2023-12-28T06:57:38;12.57;;;3.87;;
16504;SDS011;8365;51.030;4.696;2023-12-28T07:00:11;9.63;;;3.47;;
16504;SDS011;8365;51.030;4.696;2023-12-28T07:02:42;11.07;;;3.80;;
16504;SDS011;8365;51.030;4.696;2023-12-28T07:05:12;7.90;;;2.80;;
16504;SDS011;8365;51.030;4.696;2023-12-28T07:07:43;12.43;;;3.70;;
16504;SDS011;8365;51.030;4.696;2023-12-28T07:10:14;8.17;;;3.13;;
16504;SDS011;8365;51.030;4.696;2023-12-28T07:12:45;8.20;;;3.13;;
16504;SDS011;8365;51.030;4.696;2023-12-28T07:15:15;8.23;;;2.73;;
16504;SDS011;8365;51.030;4.696;2023-12-28T07:17:46;10.90;;;3.20;;
16504;SDS011;8365;51.030;4.696;2023-12-28T07:20:16;10.57;;;3.40;;
16504;SDS011;8365;51.030;4.696;2023-12-28T07:22:47;9.87;;;3.37;;
16504;SDS011;8365;51.030;4.696;2023-12-28T07:25:17;9.90;;;3.27;;
16504;SDS011;8365;51.030;4.696;2023-12-28T07:27:48;6.23;;;3.30;;
16504;SDS011;8365;51.030;4.696;2023-12-28T07:30:21;13.30;;;3.60;;
16504;SDS011;8365;51.030;4.696;2023-12-28T07:32:51;9.10;;;3.37;;
16504;SDS011;8365;51.030;4.696;2023-12-28T07:35:21;9.27;;;3.60;;
16504;SDS011;8365;51.030;4.696;2023-12-28T07:37:52;13.77;;;3.43;;
16504;SDS011;8365;51.030;4.696;2023-12-28T07:40:22;9.97;;;2.73;;
16504;SDS011;8365;51.030;4.696;2023-12-28T07:42:53;12.93;;;3.67;;
16504;SDS011;8365;51.030;4.696;2023-12-28T07:45:23;13.33;;;3.67;;
16504;SDS011;8365;51.030;4.696;2023-12-28T07:47:54;10.00;;;3.47;;
16504;SDS011;8365;51.030;4.696;2023-12-28T07:50:25;8.47;;;3.40;;
16504;SDS011;8365;51.030;4.696;2023-12-28T07:52:55;12.40;;;3.37;;
16504;SDS011;8365;51.030;4.696;2023-12-28T07:55:26;12.63;;;4.00;;
16504;SDS011;8365;51.030;4.696;2023-12-28T07:57:56;17.23;;;3.23;;
16504;SDS011;8365;51.030;4.696;2023-12-28T08:00:27;15.80;;;3.37;;
16504;SDS011;8365;51.030;4.696;2023-12-28T08:02:57;9.83;;;3.33;;
16504;SDS011;8365;51.030;4.696;2023-12-28T08:05:28;10.77;;;3.67;;
16504;SDS011;8365;51.030;4.696;2023-12-28T08:07:59;10.80;;;3.30;;
16504;SDS011;8365;51.030;4.696;2023-12-28T08:10:29;14.47;;;3.60;;
16504;SDS011;8365;51.030;4.696;2023-12-28T08:13:00;15.63;;;3.47;;
16504;SDS011;8365;51.030;4.696;2023-12-28T08:15:30;8.93;;;3.10;;
16504;SDS011;8365;51.030;4.696;2023-12-28T08:18:01;9.77;;;3.80;;
16504;SDS011;8365;51.030;4.696;2023-12-28T08:20:34;9.73;;;3.33;;
16504;SDS011;8365;51.030;4.696;2023-12-28T08:23:04;14.83;;;3.17;;
16504;SDS011;8365;51.030;4.696;2023-12-28T08:25:35;9.97;;;3.47;;
16504;SDS011;8365;51.030;4.696;2023-12-28T08:28:05;12.67;;;2.77;;
16504;SDS011;8365;51.030;4.696;2023-12-28T08:30:36;10.50;;;3.03;;
16504;SDS011;8365;51.030;4.696;2023-12-28T08:33:06;8.50;;;2.80;;
16504;SDS011;8365;51.030;4.696;2023-12-28T08:35:37;12.07;;;3.40;;
16504;SDS011;8365;51.030;4.696;2023-12-28T08:38:07;15.33;;;3.40;;
16504;SDS011;8365;51.030;4.696;2023-12-28T08:40:41;9.33;;;2.90;;
16504;SDS011;8365;51.030;4.696;2023-12-28T08:43:11;8.10;;;2.50;;
16504;SDS011;8365;51.030;4.696;2023-12-28T08:45:42;13.17;;;3.87;;
16504;SDS011;8365;51.030;4.696;2023-12-28T08:48:12;11.07;;;3.20;;
16504;SDS011;8365;51.030;4.696;2023-12-28T08:50:43;12.50;;;3.83;;
16504;SDS011;8365;51.030;4.696;2023-12-28T08:53:13;12.43;;;3.40;;
16504;SDS011;8365;51.030;4.696;2023-12-28T08:55:44;9.20;;;3.63;;
16504;SDS011;8365;51.030;4.696;2023-12-28T08:58:14;10.63;;;3.30;;
16504;SDS011;8365;51.030;4.696;2023-12-28T09:00:45;11.97;;;3.57;;
16504;SDS011;8365;51.030;4.696;2023-12-28T09:03:17;10.47;;;3.70;;
16504;SDS011;8365;51.030;4.696;2023-12-28T09:05:47;12.17;;;3.83;;
16504;SDS011;8365;51.030;4.696;2023-12-28T09:08:18;14.87;;;4.03;;
16504;SDS011;8365;51.030;4.696;2023-12-28T09:10:48;10.17;;;3.00;;
16504;SDS011;8365;51.030;4.696;2023-12-28T09:13:19;10.43;;;3.33;;
16504;SDS011;8365;51.030;4.696;2023-12-28T09:15:49;15.43;;;3.90;;
16504;SDS011;8365;51.030;4.696;2023-12-28T09:18:20;9.60;;;3.77;;
16504;SDS011;8365;51.030;4.696;2023-12-28T09:20:51;10.47;;;3.30;;
16504;SDS011;8365;51.030;4.696;2023-12-28T09:23:21;15.13;;;3.57;;
16504;SDS011;8365;51.030;4.696;2023-12-28T09:25:52;14.97;;;3.80;;
16504;SDS011;8365;51.030;4.696;2023-12-28T09:28:25;10.80;;;3.13;;
16504;SDS011;8365;51.030;4.696;2023-12-28T09:30:55;9.90;;;3.33;;
16504;SDS011;8365;51.030;4.696;2023-12-28T09:33:26;10.40;;;3.20;;
16504;SDS011;8365;51.030;4.696;2023-12-28T09:35:56;10.07;;;2.93;;
16504;SDS011;8365;51.030;4.696;2023-12-28T09:38:27;11.07;;;3.20;;
16504;SDS011;8365;51.030;4.696;2023-12-28T09:41:03;13.73;;;3.93;;
16504;SDS011;8365;51.030;4.696;2023-12-28T09:46:24;14.80;;;3.60;;
16504;SDS011;8365;51.030;4.696;2023-12-28T09:48:56;13.40;;;3.53;;
16504;SDS011;8365;51.030;4.696;2023-12-28T09:51:27;13.43;;;3.40;;
16504;SDS011;8365;51.030;4.696;2023-12-28T09:53:58;13.33;;;3.57;;
16504;SDS011;8365;51.030;4.696;2023-12-28T09:56:29;11.93;;;2.80;;
16504;SDS011;8365;51.030;4.696;2023-12-28T09:59:02;9.77;;;3.70;;
16504;SDS011;8365;51.030;4.696;2023-12-28T10:01:36;14.57;;;2.87;;
16504;SDS011;8365;51.030;4.696;2023-12-28T10:04:06;12.27;;;3.00;;
16504;SDS011;8365;51.030;4.696;2023-12-28T10:06:38;16.10;;;3.67;;
16504;SDS011;8365;51.030;4.696;2023-12-28T10:09:11;14.63;;;3.30;;
16504;SDS011;8365;51.030;4.696;2023-12-28T10:11:41;13.00;;;3.80;;
16504;SDS011;8365;51.030;4.696;2023-12-28T10:14:12;13.17;;;3.83;;
16504;SDS011;8365;51.030;4.696;2023-12-28T10:16:43;14.37;;;3.50;;
16504;SDS011;8365;51.030;4.696;2023-12-28T10:19:13;10.63;;;3.13;;
16504;SDS011;8365;51.030;4.696;2023-12-28T10:21:44;13.53;;;3.83;;
16504;SDS011;8365;51.030;4.696;2023-12-28T10:24:14;10.07;;;3.83;;
16504;SDS011;8365;51.030;4.696;2023-12-28T10:26:45;17.37;;;3.50;;
16504;SDS011;8365;51.030;4.696;2023-12-28T10:29:16;16.43;;;3.97;;
16504;SDS011;8365;51.030;4.696;2023-12-28T10:31:46;10.87;;;3.50;;
16504;SDS011;8365;51.030;4.696;2023-12-28T10:34:20;14.83;;;3.23;;
16504;SDS011;8365;51.030;4.696;2023-12-28T10:36:51;12.67;;;3.90;;
16504;SDS011;8365;51.030;4.696;2023-12-28T10:39:22;15.10;;;3.60;;
16504;SDS011;8365;51.030;4.696;2023-12-28T10:41:55;13.70;;;3.60;;
16504;SDS011;8365;51.030;4.696;2023-12-28T10:44:31;12.20;;;3.80;;
16504;SDS011;8365;51.030;4.696;2023-12-28T10:47:05;13.80;;;3.60;;
16504;SDS011;8365;51.030;4.696;2023-12-28T10:49:40;11.60;;;3.23;;
16504;SDS011;8365;51.030;4.696;2023-12-28T10:52:14;12.97;;;4.30;;
16504;SDS011;8365;51.030;4.696;2023-12-28T10:54:54;14.17;;;3.97;;
16504;SDS011;8365;51.030;4.696;2023-12-28T10:57:45;10.50;;;3.37;;
16504;SDS011;8365;51.030;4.696;2023-12-28T11:00:22;11.80;;;3.70;;
16504;SDS011;8365;51.030;4.696;2023-12-28T11:02:56;14.63;;;4.00;;
16504;SDS011;8365;51.030;4.696;2023-12-28T11:05:32;16.70;;;3.50;;
16504;SDS011;8365;51.030;4.696;2023-12-28T11:08:04;13.33;;;4.00;;
16504;SDS011;8365;51.030;4.696;2023-12-28T11:10:37;15.47;;;3.77;;
16504;SDS011;8365;51.030;4.696;2023-12-28T11:13:08;11.13;;;3.40;;
16504;SDS011;8365;51.030;4.696;2023-12-28T11:15:40;11.00;;;3.17;;
16504;SDS011;8365;51.030;4.696;2023-12-28T11:18:11;11.77;;;3.40;;
16504;SDS011;8365;51.030;4.696;2023-12-28T11:20:42;16.33;;;4.70;;
16504;SDS011;8365;51.030;4.696;2023-12-28T11:23:16;13.57;;;3.60;;
16504;SDS011;8365;51.030;4.696;2023-12-28T11:25:47;11.93;;;3.80;;
16504;SDS011;8365;51.030;4.696;2023-12-28T11:28:17;12.03;;;3.93;;
16504;SDS011;8365;51.030;4.696;2023-12-28T11:30:49;13.53;;;4.10;;
16504;SDS011;8365;51.030;4.696;2023-12-28T11:33:23;9.93;;;3.67;;
16504;SDS011;8365;51.030;4.696;2023-12-28T11:36:01;10.30;;;3.23;;
16504;SDS011;8365;51.030;4.696;2023-12-28T11:38:31;14.40;;;3.57;;
16504;SDS011;8365;51.030;4.696;2023-12-28T11:41:03;15.23;;;3.90;;
16504;SDS011;8365;51.030;4.696;2023-12-28T11:43:34;13.33;;;3.63;;
16504;SDS011;8365;51.030;4.696;2023-12-28T11:46:05;12.53;;;3.60;;
16504;SDS011;8365;51.030;4.696;2023-12-28T11:48:38;16.23;;;4.50;;
16504;SDS011;8365;51.030;4.696;2023-12-28T11:51:08;12.23;;;4.00;;
16504;SDS011;8365;51.030;4.696;2023-12-28T11:53:39;15.00;;;3.97;;
16504;SDS011;8365;51.030;4.696;2023-12-28T11:56:11;17.27;;;4.10;;
16504;SDS011;8365;51.030;4.696;2023-12-28T11:58:46;14.13;;;3.73;;
16504;SDS011;8365;51.030;4.696;2023-12-28T12:01:18;11.50;;;3.20;;
16504;SDS011;8365;51.030;4.696;2023-12-28T12:03:48;16.70;;;4.33;;
16504;SDS011;8365;51.030;4.696;2023-12-28T12:06:22;13.47;;;5.20;;
16504;SDS011;8365;51.030;4.696;2023-12-28T12:08:52;13.53;;;4.60;;
16504;SDS011;8365;51.030;4.696;2023-12-28T12:11:23;13.77;;;3.80;;
16504;SDS011;8365;51.030;4.696;2023-12-28T12:13:53;11.37;;;3.83;;
16504;SDS011;8365;51.030;4.696;2023-12-28T12:16:25;11.57;;;4.43;;
16504;SDS011;8365;51.030;4.696;2023-12-28T12:18:55;16.27;;;4.90;;
16504;SDS011;8365;51.030;4.696;2023-12-28T12:21:27;12.87;;;3.73;;
16504;SDS011;8365;51.030;4.696;2023-12-28T12:23:58;10.23;;;4.33;;
16504;SDS011;8365;51.030;4.696;2023-12-28T12:26:29;13.87;;;4.10;;
16504;SDS011;8365;51.030;4.696;2023-12-28T12:29:02;13.90;;;3.93;;
16504;SDS011;8365;51.030;4.696;2023-12-28T12:31:33;14.57;;;4.37;;
16504;SDS011;8365;51.030;4.696;2023-12-28T12:34:04;12.13;;;3.70;;
16504;SDS011;8365;51.030;4.696;2023-12-28T12:36:34;18.27;;;4.33;;
16504;SDS011;8365;51.030;4.696;2023-12-28T12:39:05;12.73;;;4.40;;
16504;SDS011;8365;51.030;4.696;2023-12-28T12:41:38;11.83;;;3.50;;
16504;SDS011;8365;51.030;4.696;2023-12-28T12:44:09;11.97;;;4.00;;
16504;SDS011;8365;51.030;4.696;2023-12-28T12:46:40;9.97;;;3.43;;
16504;SDS011;8365;51.030;4.696;2023-12-28T12:49:11;16.67;;;4.73;;
16504;SDS011;8365;51.030;4.696;2023-12-28T12:51:41;10.60;;;4.57;;
16504;SDS011;8365;51.030;4.696;2023-12-28T12:54:12;14.33;;;4.23;;
16504;SDS011;8365;51.030;4.696;2023-12-28T12:56:42;13.33;;;5.30;;
16504;SDS011;8365;51.030;4.696;2023-12-28T12:59:15;11.53;;;3.67;;
16504;SDS011;8365;51.030;4.696;2023-12-28T13:01:49;11.00;;;4.47;;
16504;SDS011;8365;51.030;4.696;2023-12-28T13:04:23;10.13;;;3.37;;
16504;SDS011;8365;51.030;4.696;2023-12-28T13:06:53;16.13;;;4.20;;
16504;SDS011;8365;51.030;4.696;2023-12-28T13:09:24;17.37;;;4.87;;
16504;SDS011;8365;51.030;4.696;2023-12-28T13:11:55;13.33;;;3.87;;
16504;SDS011;8365;51.030;4.696;2023-12-28T13:14:26;13.03;;;3.37;;
16504;SDS011;8365;51.030;4.696;2023-12-28T13:16:57;12.63;;;4.10;;
16504;SDS011;8365;51.030;4.696;2023-12-28T13:19:27;11.97;;;3.50;;
16504;SDS011;8365;51.030;4.696;2023-12-28T13:21:58;14.60;;;3.93;;
16504;SDS011;8365;51.030;4.696;2023-12-28T13:24:29;8.37;;;2.83;;
16504;SDS011;8365;51.030;4.696;2023-12-28T13:26:59;12.73;;;4.20;;
16504;SDS011;8365;51.030;4.696;2023-12-28T13:29:30;13.63;;;4.20;;
16504;SDS011;8365;51.030;4.696;2023-12-28T13:32:01;14.70;;;4.60;;
16504;SDS011;8365;51.030;4.696;2023-12-28T13:34:31;15.90;;;4.87;;
16504;SDS011;8365;51.030;4.696;2023-12-28T13:37:02;10.17;;;3.27;;
16504;SDS011;8365;51.030;4.696;2023-12-28T13:39:33;11.67;;;3.63;;
16504;SDS011;8365;51.030;4.696;2023-12-28T13:42:08;12.43;;;3.50;;
16504;SDS011;8365;51.030;4.696;2023-12-28T13:44:39;12.10;;;4.73;;
16504;SDS011;8365;51.030;4.696;2023-12-28T13:47:09;13.97;;;4.50;;
16504;SDS011;8365;51.030;4.696;2023-12-28T13:49:40;14.03;;;3.73;;
16504;SDS011;8365;51.030;4.696;2023-12-28T13:52:10;13.33;;;3.83;;
16504;SDS011;8365;51.030;4.696;2023-12-28T13:54:40;14.57;;;3.70;;
16504;SDS011;8365;51.030;4.696;2023-12-28T13:57:11;15.13;;;4.10;;
16504;SDS011;8365;51.030;4.696;2023-12-28T13:59:42;11.20;;;3.40;;
16504;SDS011;8365;51.030;4.696;2023-12-28T14:02:12;13.07;;;4.07;;
16504;SDS011;8365;51.030;4.696;2023-12-28T14:04:43;13.03;;;3.90;;
16504;SDS011;8365;51.030;4.696;2023-12-28T14:07:13;14.13;;;4.40;;
16504;SDS011;8365;51.030;4.696;2023-12-28T14:09:44;8.97;;;2.90;;
16504;SDS011;8365;51.030;4.696;2023-12-28T14:12:14;15.70;;;3.50;;
16504;SDS011;8365;51.030;4.696;2023-12-28T14:14:45;14.63;;;3.90;;
16504;SDS011;8365;51.030;4.696;2023-12-28T14:17:15;10.23;;;3.17;;
16504;SDS011;8365;51.030;4.696;2023-12-28T14:19:49;9.87;;;2.93;;
16504;SDS011;8365;51.030;4.696;2023-12-28T14:22:20;9.67;;;3.70;;
16504;SDS011;8365;51.030;4.696;2023-12-28T14:24:51;11.53;;;3.23;;
16504;SDS011;8365;51.030;4.696;2023-12-28T14:27:22;8.67;;;3.37;;
16504;SDS011;8365;51.030;4.696;2023-12-28T14:29:53;12.67;;;3.83;;
16504;SDS011;8365;51.030;4.696;2023-12-28T14:32:24;12.93;;;3.97;;
16504;SDS011;8365;51.030;4.696;2023-12-28T14:34:54;17.60;;;3.80;;
16504;SDS011;8365;51.030;4.696;2023-12-28T14:37:25;15.07;;;4.90;;
16504;SDS011;8365;51.030;4.696;2023-12-28T14:39:56;18.80;;;4.97;;
16504;SDS011;8365;51.030;4.696;2023-12-28T14:42:26;13.17;;;3.87;;
16504;SDS011;8365;51.030;4.696;2023-12-28T14:44:57;9.87;;;3.77;;
16504;SDS011;8365;51.030;4.696;2023-12-28T14:47:27;12.93;;;3.57;;
16504;SDS011;8365;51.030;4.696;2023-12-28T14:49:58;12.80;;;4.00;;
16504;SDS011;8365;51.030;4.696;2023-12-28T14:52:29;11.00;;;3.00;;
16504;SDS011;8365;51.030;4.696;2023-12-28T14:54:59;12.70;;;3.80;;
16504;SDS011;8365;51.030;4.696;2023-12-28T14:57:30;14.80;;;2.97;;
16504;SDS011;8365;51.030;4.696;2023-12-28T15:00:00;13.27;;;3.47;;
16504;SDS011;8365;51.030;4.696;2023-12-28T15:02:31;8.83;;;3.23;;
16504;SDS011;8365;51.030;4.696;2023-12-28T15:05:01;13.50;;;3.93;;
16504;SDS011;8365;51.030;4.696;2023-12-28T15:07:32;11.67;;;3.60;;
16504;SDS011;8365;51.030;4.696;2023-12-28T15:10:03;14.53;;;3.90;;
16504;SDS011;8365;51.030;4.696;2023-12-28T15:12:34;11.50;;;3.67;;
16504;SDS011;8365;51.030;4.696;2023-12-28T15:15:05;11.43;;;3.87;;
16504;SDS011;8365;51.030;4.696;2023-12-28T15:17:36;12.63;;;3.50;;
16504;SDS011;8365;51.030;4.696;2023-12-28T15:20:07;13.40;;;3.50;;
16504;SDS011;8365;51.030;4.696;2023-12-28T15:22:38;13.07;;;3.73;;
16504;SDS011;8365;51.030;4.696;2023-12-28T15:25:09;11.27;;;3.70;;